Time;durP1;ratioP1;P1;durP2;ratioP2;P2;SDS_P1;SDS_P2;PMS_P1;PMS_P2;Temp;Humidity;BMP_temperature;BMP_pressure;BME280_temperature;BME280_humidity;BME280_pressure;Samples;Min_cycle;Max_cycle;Signal;HPM_P1;HPM_P2
2023/10/10 00:02:20;;;;;;;0.30;0.30;;;14.20;99.90;;;;;;5113652;27;20188;-74
2023/10/10 00:04:54;;;;;;;0.30;0.30;;;14.10;99.90;;;;;;5110665;27;20047;-74
2023/10/10 00:07:20;;;;;;;0.20;0.20;;;14.10;99.90;;;;;;5106598;28;20055;-74
2023/10/10 00:09:46;;;;;;;0.50;0.50;;;14.10;99.90;;;;;;5111239;28;20044;-75
2023/10/10 00:12:25;;;;;;;0.30;0.30;;;14.10;99.90;;;;;;5111785;27;20134;-74
2023/10/10 00:14:51;;;;;;;0.30;0.30;;;14.10;99.90;;;;;;5113493;27;20106;-74
2023/10/10 00:17:20;;;;;;;0.60;0.60;;;14.10;99.90;;;;;;5107461;27;20078;-74
2023/10/10 00:19:52;;;;;;;0.40;0.40;;;14.10;99.90;;;;;;5106690;27;20051;-74
2023/10/10 00:22:26;;;;;;;0.22;0.22;;;14.10;99.90;;;;;;5090299;27;20481;-74
2023/10/10 00:24:52;;;;;;;1.35;0.98;;;14.10;99.90;;;;;;5108174;27;20044;-74
2023/10/10 00:27:21;;;;;;;0.30;0.30;;;14.10;99.90;;;;;;5106268;27;20523;-75
2023/10/10 00:29:48;;;;;;;0.20;0.20;;;14.10;99.90;;;;;;5099724;27;20039;-74
2023/10/10 00:32:22;;;;;;;0.30;0.30;;;14.10;99.90;;;;;;5097494;28;20043;-74
2023/10/10 00:34:48;;;;;;;0.50;0.50;;;14.10;99.90;;;;;;5107677;28;20039;-75
2023/10/10 00:37:17;;;;;;;0.28;0.28;;;14.10;99.90;;;;;;5109751;27;20064;-74
2023/10/10 00:39:52;;;;;;;0.30;0.30;;;14.10;99.90;;;;;;5109480;27;20051;-75
2023/10/10 00:42:36;;;;;;;0.45;0.45;;;14.10;99.90;;;;;;5110044;27;20127;-75
2023/10/10 00:45:09;;;;;;;0.30;0.30;;;14.10;99.90;;;;;;5114089;27;20047;-74
2023/10/10 00:47:42;;;;;;;0.22;0.22;;;14.10;99.90;;;;;;5104246;28;20035;-74
2023/10/10 00:50:17;;;;;;;0.20;0.20;;;14.20;99.90;;;;;;5104340;28;20039;-74
2023/10/10 00:52:55;;;;;;;0.40;0.40;;;14.20;99.90;;;;;;5104956;28;20031;-74
2023/10/10 00:55:24;;;;;;;0.55;0.55;;;14.20;99.90;;;;;;5105133;27;20059;-75
2023/10/10 00:57:58;;;;;;;0.50;0.50;;;14.20;99.90;;;;;;5114474;27;20051;-74
2023/10/10 01:00:25;;;;;;;0.40;0.40;;;14.20;99.90;;;;;;5111886;27;20050;-74
2023/10/10 01:03:03;;;;;;;0.73;0.73;;;14.20;99.90;;;;;;5111517;27;20054;-75
2023/10/10 01:06:24;;;;;;;0.30;0.30;;;14.20;99.90;;;;;;5110821;27;20043;-74
2023/10/10 01:08:17;;;;;;;0.60;0.60;;;14.10;99.90;;;;;;5082945;27;20402;-75
2023/10/10 01:10:43;;;;;;;0.20;0.20;;;14.10;99.90;;;;;;5102400;28;20048;-74
2023/10/10 01:13:10;;;;;;;0.30;0.30;;;14.10;99.90;;;;;;5110896;28;20050;-75
2023/10/10 01:15:37;;;;;;;0.30;0.30;;;14.10;99.90;;;;;;5107041;28;20050;-75
2023/10/10 01:18:12;;;;;;;0.35;0.35;;;14.10;99.90;;;;;;5091549;27;20090;-75
2023/10/10 01:20:45;;;;;;;0.40;0.40;;;14.10;99.90;;;;;;5091511;28;20051;-75
2023/10/10 01:23:11;;;;;;;0.30;0.30;;;14.10;99.90;;;;;;5115866;27;20051;-74
2023/10/10 01:28:23;;;;;;;0.20;0.20;;;14.10;99.90;;;;;;5108290;27;20069;-75
2023/10/10 01:33:41;;;;;;;0.30;0.30;;;14.20;99.90;;;;;;5108067;28;20351;-75
2023/10/10 01:36:20;;;;;;;0.20;0.20;;;14.20;99.90;;;;;;5105762;28;20052;-75
2023/10/10 01:38:59;;;;;;;0.30;0.30;;;14.20;99.90;;;;;;5107411;27;20055;-75
2023/10/10 01:41:31;;;;;;;0.20;0.20;;;14.20;99.90;;;;;;5101072;27;20404;-75
2023/10/10 01:44:18;;;;;;;0.32;0.32;;;14.20;99.90;;;;;;5113060;27;20470;-75
2023/10/10 01:46:44;;;;;;;0.30;0.30;;;14.30;99.90;;;;;;5103986;28;20047;-75
2023/10/10 01:49:14;;;;;;;0.40;0.40;;;14.30;99.90;;;;;;5100237;27;20042;-75
2023/10/10 01:51:42;;;;;;;0.43;0.43;;;14.30;99.90;;;;;;5110136;27;20097;-75
2023/10/10 01:54:18;;;;;;;0.32;0.32;;;14.30;99.90;;;;;;5104801;27;20055;-75
2023/10/10 01:56:44;;;;;;;0.30;0.30;;;14.30;99.90;;;;;;5107158;27;20485;-74
2023/10/10 01:59:13;;;;;;;0.30;0.30;;;14.30;99.90;;;;;;5115868;27;20043;-75
2023/10/10 02:01:41;;;;;;;0.20;0.20;;;14.30;99.90;;;;;;5117761;27;20058;-75
2023/10/10 02:04:07;;;;;;;0.20;0.20;;;14.30;99.90;;;;;;5104510;28;20042;-75
2023/10/10 02:06:34;;;;;;;;;;;14.40;99.90;;;;;;5107940;27;20508;-74
2023/10/10 02:09:27;;;;;;;0.32;0.32;;;14.40;99.90;;;;;;5106788;27;19924;-75
2023/10/10 02:11:54;;;;;;;0.20;0.20;;;14.40;99.90;;;;;;5105073;27;20054;-75
2023/10/10 02:14:25;;;;;;;0.60;0.60;;;14.40;99.90;;;;;;5107101;27;20042;-75
2023/10/10 02:16:53;;;;;;;0.20;0.20;;;14.40;99.90;;;;;;5105588;28;20160;-75
2023/10/10 02:19:38;;;;;;;0.20;0.20;;;14.40;99.90;;;;;;5099675;28;20040;-74
2023/10/10 02:22:32;;;;;;;0.28;0.28;;;14.40;99.90;;;;;;5110046;27;20047;-74
2023/10/10 02:27:54;;;;;;;0.20;0.20;;;14.40;99.90;;;;;;5103422;27;20146;-74
2023/10/10 02:33:16;;;;;;;0.20;0.20;;;14.40;99.90;;;;;;5088147;28;20063;-75
2023/10/10 02:35:56;;;;;;;0.35;0.35;;;14.50;99.90;;;;;;5100218;28;20843;-75
2023/10/10 02:38:32;;;;;;;0.25;0.25;;;14.50;99.90;;;;;;5108845;28;20067;-75
2023/10/10 02:43:46;;;;;;;0.25;0.25;;;14.50;99.90;;;;;;5105903;27;20082;-74
2023/10/10 02:46:18;;;;;;;0.35;0.35;;;14.50;99.90;;;;;;5112033;27;20078;-75
2023/10/10 02:48:45;;;;;;;0.20;0.20;;;14.60;99.90;;;;;;5106463;27;20046;-75
2023/10/10 02:51:15;;;;;;;0.30;0.30;;;14.50;99.90;;;;;;5106423;28;20497;-75
2023/10/10 02:53:46;;;;;;;0.28;0.28;;;14.50;99.90;;;;;;5103393;27;20040;-75
2023/10/10 02:56:19;;;;;;;0.28;0.28;;;14.50;99.90;;;;;;5104171;28;20060;-75
2023/10/10 02:58:54;;;;;;;0.35;0.35;;;14.50;99.90;;;;;;5101687;28;20068;-75
2023/10/10 03:01:50;;;;;;;1.10;0.55;;;14.50;99.90;;;;;;5102370;28;20051;-75
2023/10/10 03:04:08;;;;;;;0.40;0.40;;;14.50;99.90;;;;;;5105436;27;20051;-75
2023/10/10 03:06:34;;;;;;;0.20;0.20;;;14.50;99.90;;;;;;5108232;27;20048;-73
2023/10/10 03:09:27;;;;;;;0.30;0.20;;;14.50;99.90;;;;;;5110462;27;20153;-73
2023/10/10 03:11:53;;;;;;;0.98;0.55;;;14.60;99.90;;;;;;5111181;27;20043;-74
2023/10/10 03:14:28;;;;;;;;;;;14.60;99.90;;;;;;5106109;27;20043;-74
2023/10/10 03:17:09;;;;;;;0.17;0.17;;;14.60;99.90;;;;;;5110060;27;20261;-74
2023/10/10 03:19:38;;;;;;;0.20;0.20;;;14.60;99.90;;;;;;5087888;28;20055;-74
2023/10/10 03:25:20;;;;;;;0.32;0.32;;;14.60;99.90;;;;;;5104911;27;20051;-74
2023/10/10 03:27:54;;;;;;;1.48;1.48;;;14.60;99.90;;;;;;5105690;27;20112;-74
2023/10/10 03:31:10;;;;;;;0.70;0.70;;;14.70;99.90;;;;;;5114182;27;20516;-75
2023/10/10 03:33:09;;;;;;;0.30;0.30;;;14.60;99.90;;;;;;5095824;27;20216;-75
2023/10/10 03:38:44;;;;;;;0.65;0.63;;;14.70;99.90;;;;;;5105192;28;20697;-74
2023/10/10 05:25:32;;;;;;;0.60;0.60;;;14.40;99.90;;;;;;5113319;27;20039;-74
2023/10/10 05:28:00;;;;;;;1.40;0.40;;;14.40;99.90;;;;;;5114004;27;20113;-74
2023/10/10 05:30:39;;;;;;;0.40;0.40;;;14.40;99.90;;;;;;5105323;27;20175;-74
2023/10/10 05:33:06;;;;;;;0.30;0.30;;;14.40;99.90;;;;;;5106812;28;20332;-74
2023/10/10 05:35:34;;;;;;;0.30;0.30;;;14.40;99.90;;;;;;5097001;28;20048;-74
2023/10/10 05:38:00;;;;;;;0.60;0.60;;;14.40;99.90;;;;;;5112065;27;20315;-74
2023/10/10 05:40:27;;;;;;;0.57;0.57;;;14.40;99.90;;;;;;5112074;27;20128;-74
2023/10/10 05:42:53;;;;;;;0.30;0.30;;;14.40;99.90;;;;;;5107700;27;20047;-74
2023/10/10 05:45:22;;;;;;;0.30;0.30;;;14.40;99.90;;;;;;5111460;27;20074;-74
2023/10/10 05:47:47;;;;;;;0.20;0.20;;;14.40;99.90;;;;;;5105944;27;20036;-75
2023/10/10 05:50:14;;;;;;;0.30;0.30;;;14.40;99.90;;;;;;5096811;28;20047;-75
2023/10/10 05:52:40;;;;;;;0.30;0.30;;;14.40;99.90;;;;;;5104181;27;20474;-75
2023/10/10 05:55:13;;;;;;;0.20;0.20;;;14.40;99.90;;;;;;5102655;27;20044;-74
2023/10/10 05:57:39;;;;;;;0.73;0.73;;;14.40;99.90;;;;;;5098327;27;20040;-75
2023/10/10 06:00:10;;;;;;;0.30;0.30;;;14.40;99.90;;;;;;5109262;27;20066;-75
2023/10/10 06:02:42;;;;;;;0.95;0.57;;;14.40;99.90;;;;;;5112975;27;20077;-75
2023/10/10 06:05:09;;;;;;;0.22;0.22;;;14.40;99.90;;;;;;5106519;27;20077;-74
2023/10/10 06:07:42;;;;;;;0.50;0.50;;;14.40;99.90;;;;;;5108055;27;20058;-75
2023/10/10 06:10:17;;;;;;;0.30;0.30;;;14.50;99.90;;;;;;5104931;27;20105;-75
2023/10/10 06:12:47;;;;;;;0.40;0.40;;;14.50;99.90;;;;;;5099627;28;20043;-74
2023/10/10 06:15:17;;;;;;;0.45;0.45;;;14.50;99.90;;;;;;5103624;27;20051;-74
2023/10/10 06:17:48;;;;;;;1.90;1.40;;;14.50;99.90;;;;;;5109003;27;20043;-74
2023/10/10 06:20:16;;;;;;;0.30;0.30;;;14.50;99.90;;;;;;5112112;27;20047;-74
2023/10/10 06:22:45;;;;;;;0.40;0.40;;;14.50;99.90;;;;;;5087475;27;20104;-74
2023/10/10 06:25:17;;;;;;;0.30;0.30;;;14.50;99.90;;;;;;5104367;27;20146;-74
2023/10/10 06:27:46;;;;;;;0.25;0.25;;;14.50;99.90;;;;;;5095315;27;20044;-75
2023/10/10 06:30:18;;;;;;;0.30;0.30;;;14.50;99.90;;;;;;5077031;28;20055;-75
2023/10/10 06:32:46;;;;;;;0.70;0.70;;;14.50;99.90;;;;;;5124550;27;20052;-75
2023/10/10 06:35:37;;;;;;;0.70;0.70;;;14.60;99.90;;;;;;5104424;28;20048;-74
2023/10/10 06:37:59;;;;;;;1.60;1.50;;;14.60;99.90;;;;;;5105273;27;20047;-75
2023/10/10 06:40:28;;;;;;;;;;;14.60;99.90;;;;;;5089851;28;20085;-75
2023/10/10 06:42:56;;;;;;;1.15;1.05;;;14.70;99.90;;;;;;5103462;28;19919;-75
2023/10/10 06:45:26;;;;;;;0.63;0.63;;;14.70;99.90;;;;;;5102991;28;20054;-75
2023/10/10 06:47:54;;;;;;;1.13;1.13;;;14.80;99.90;;;;;;5105624;27;20116;-75
2023/10/10 06:50:23;;;;;;;1.17;0.90;;;14.80;99.90;;;;;;5106610;28;20043;-75
2023/10/10 06:52:54;;;;;;;2.67;2.47;;;14.90;99.90;;;;;;5106591;27;20431;-75
2023/10/10 06:55:23;;;;;;;0.95;0.90;;;14.90;99.90;;;;;;5105259;28;20048;-75
2023/10/10 06:57:58;;;;;;;0.73;0.73;;;15.00;99.90;;;;;;5105991;28;20043;-75
2023/10/10 07:00:28;;;;;;;0.77;0.77;;;15.00;99.90;;;;;;5103490;28;20058;-75
2023/10/10 07:02:55;;;;;;;2.50;1.15;;;15.10;99.90;;;;;;5105053;27;20165;-74
2023/10/10 07:05:27;;;;;;;3.97;2.15;;;15.10;99.90;;;;;;5104094;28;20103;-75
2023/10/10 07:08:12;;;;;;;2.15;0.82;;;15.10;99.90;;;;;;5109470;27;20050;-74
2023/10/10 07:10:41;;;;;;;0.70;0.70;;;15.10;99.90;;;;;;5103912;28;20043;-75
2023/10/10 07:13:18;;;;;;;2.72;1.75;;;15.10;99.90;;;;;;5104663;28;20086;-74
2023/10/10 07:15:51;;;;;;;1.85;1.75;;;15.10;99.90;;;;;;5105779;28;20084;-75
2023/10/10 07:18:22;;;;;;;0.60;0.60;;;15.20;99.90;;;;;;5105145;28;20048;-75
2023/10/10 07:21:08;;;;;;;1.02;0.93;;;15.30;99.90;;;;;;5105229;27;20059;-74
2023/10/10 07:23:39;;;;;;;1.17;1.17;;;16.00;99.90;;;;;;5104551;28;20508;-75
2023/10/10 07:26:18;;;;;;;2.25;1.50;;;15.40;99.90;;;;;;5100986;27;20062;-75
2023/10/10 07:28:52;;;;;;;0.40;0.40;;;15.50;99.90;;;;;;5102126;28;20050;-75
2023/10/10 07:31:22;;;;;;;0.95;0.95;;;15.60;99.90;;;;;;5104391;28;20501;-75
2023/10/10 07:33:55;;;;;;;6.93;1.38;;;15.60;99.90;;;;;;5103562;28;20055;-75
2023/10/10 07:36:26;;;;;;;0.80;0.80;;;15.70;99.90;;;;;;5104158;28;20498;-75
2023/10/10 07:39:32;;;;;;;0.60;0.60;;;15.80;99.90;;;;;;5087845;28;20059;-75
2023/10/10 07:41:45;;;;;;;0.52;0.52;;;15.90;99.90;;;;;;5106268;28;20123;-75
2023/10/10 07:44:19;;;;;;;7.47;1.73;;;16.00;99.90;;;;;;5102896;28;20083;-75
2023/10/10 07:49:30;;;;;;;1.17;1.05;;;16.10;99.90;;;;;;5087050;28;20054;-74
2023/10/10 07:52:02;;;;;;;1.30;1.20;;;16.20;99.90;;;;;;5107402;28;20044;-75
2023/10/10 07:54:38;;;;;;;1.40;1.30;;;16.30;99.90;;;;;;5102980;28;20044;-76
2023/10/10 07:57:07;;;;;;;;;;;16.30;99.90;;;;;;5104723;28;20047;-75
2023/10/10 07:59:36;;;;;;;1.20;0.93;;;16.40;99.90;;;;;;5105360;28;19934;-75
2023/10/10 08:02:24;;;;;;;1.20;1.20;;;16.50;99.90;;;;;;5087810;28;20563;-75
2023/10/10 08:04:51;;;;;;;0.85;0.85;;;16.50;99.90;;;;;;5102483;28;20173;-75
2023/10/10 08:07:20;;;;;;;1.70;1.60;;;16.50;99.90;;;;;;5105508;28;20110;-76
2023/10/10 08:09:48;;;;;;;1.40;1.30;;;16.60;99.90;;;;;;5105721;28;20032;-74
2023/10/10 08:12:15;;;;;;;2.55;2.05;;;16.60;99.90;;;;;;5105515;28;20394;-74
2023/10/10 08:14:41;;;;;;;1.33;1.13;;;16.70;99.90;;;;;;5105468;28;20065;-74
2023/10/10 08:17:18;;;;;;;2.78;2.58;;;16.80;99.90;;;;;;5100114;28;20048;-75
2023/10/10 08:19:51;;;;;;;1.33;1.23;;;16.80;99.90;;;;;;5100726;28;20036;-74
2023/10/10 08:22:29;;;;;;;1.42;1.33;;;16.90;99.90;;;;;;5107626;28;20071;-74
2023/10/10 08:24:55;;;;;;;0.90;0.77;;;16.90;99.90;;;;;;5107212;28;20147;-74
2023/10/10 08:27:22;;;;;;;1.90;1.75;;;16.90;99.90;;;;;;5097773;28;20469;-75
2023/10/10 08:29:50;;;;;;;2.83;1.77;;;16.90;99.90;;;;;;5109222;28;20051;-74
2023/10/10 08:32:16;;;;;;;1.38;1.33;;;17.00;99.90;;;;;;5124324;27;20047;-75
2023/10/10 08:34:42;;;;;;;2.53;1.98;;;17.10;99.90;;;;;;5109583;27;20611;-74
2023/10/10 08:37:09;;;;;;;1.90;1.80;;;17.10;99.90;;;;;;5105582;27;20048;-74
2023/10/10 08:39:35;;;;;;;1.02;1.02;;;17.20;99.90;;;;;;5111427;27;20066;-75
2023/10/10 08:42:10;;;;;;;2.15;1.83;;;17.20;99.90;;;;;;5108876;28;20052;-74
2023/10/10 08:44:40;;;;;;;2.22;1.90;;;17.30;99.90;;;;;;5110196;28;20050;-74
2023/10/10 08:47:32;;;;;;;1.27;1.20;;;17.30;99.90;;;;;;5106466;28;20645;-74
2023/10/10 08:49:58;;;;;;;1.55;1.45;;;17.40;99.90;;;;;;5107752;27;20545;-74
2023/10/10 08:52:24;;;;;;;;;;;17.40;99.90;;;;;;5112131;27;20050;-74
2023/10/10 08:54:51;;;;;;;1.90;1.77;;;17.50;99.90;;;;;;5107517;27;19963;-74
2023/10/10 08:57:25;;;;;;;2.63;2.42;;;17.50;99.90;;;;;;5096892;28;20105;-74
2023/10/10 08:59:52;;;;;;;2.47;2.28;;;17.50;99.90;;;;;;5109706;27;20047;-74
2023/10/10 09:02:19;;;;;;;1.60;1.50;;;17.60;99.90;;;;;;5109828;28;20051;-75
2023/10/10 09:04:46;;;;;;;2.85;2.58;;;17.70;99.90;;;;;;5109620;27;20050;-74
2023/10/10 09:07:26;;;;;;;0.70;0.70;;;17.80;99.90;;;;;;5109330;27;20059;-74
2023/10/10 09:10:13;;;;;;;2.10;1.95;;;18.00;99.90;;;;;;5082337;28;20498;-74
2023/10/10 09:12:53;;;;;;;0.90;0.90;;;18.20;99.90;;;;;;5110488;27;20054;-74
2023/10/10 09:15:19;;;;;;;1.83;1.73;;;18.40;99.90;;;;;;5107186;27;20058;-73
2023/10/10 09:17:46;;;;;;;3.63;1.35;;;18.40;99.90;;;;;;5109486;27;20163;-75
2023/10/10 09:20:23;;;;;;;2.67;2.47;;;18.40;99.90;;;;;;5074443;27;20487;-74
2023/10/10 09:22:55;;;;;;;2.38;1.20;;;18.40;99.90;;;;;;5110084;27;20047;-73
2023/10/10 09:25:31;;;;;;;2.22;2.13;;;18.40;99.90;;;;;;5103941;27;20050;-75
2023/10/10 09:28:04;;;;;;;1.27;1.17;;;18.50;99.90;;;;;;5106079;27;20451;-74
2023/10/10 09:33:23;;;;;;;3.88;3.35;;;18.60;99.90;;;;;;5104906;27;20467;-74
2023/10/10 09:36:08;;;;;;;1.08;0.98;;;18.60;99.90;;;;;;5107158;28;20055;-74
2023/10/10 09:38:46;;;;;;;2.10;1.85;;;18.70;99.90;;;;;;5102673;27;20060;-75
2023/10/10 09:54:48;;;;;;;3.75;3.45;;;18.90;99.90;;;;;;5105742;28;20047;-75
2023/10/10 09:57:17;;;;;;;4.35;3.30;;;18.90;99.90;;;;;;5109160;28;20043;-74
2023/10/10 09:59:44;;;;;;;5.43;3.53;;;18.90;99.90;;;;;;5107752;28;20101;-74
2023/10/10 10:02:14;;;;;;;2.85;2.63;;;18.80;99.90;;;;;;5108270;28;20047;-74
2023/10/10 10:04:44;;;;;;;6.15;3.60;;;18.80;99.90;;;;;;5104389;27;20123;-73
2023/10/10 10:07:41;;;;;;;2.20;2.03;;;18.70;99.90;;;;;;5103578;28;20069;-73
2023/10/10 10:10:33;;;;;;;1.38;1.27;;;18.70;99.90;;;;;;5105886;27;20050;-74
2023/10/10 10:13:19;;;;;;;1.20;1.10;;;18.70;99.90;;;;;;5093662;27;20082;-74
2023/10/10 10:16:08;;;;;;;1.27;1.17;;;18.80;99.90;;;;;;5107626;27;20108;-74
2023/10/10 10:18:44;;;;;;;3.53;1.95;;;18.90;99.90;;;;;;5106767;28;20039;-74
2023/10/10 10:21:19;;;;;;;3.38;2.00;;;18.90;99.90;;;;;;5108619;28;20443;-74
2023/10/10 10:23:55;;;;;;;2.37;2.23;;;18.90;99.90;;;;;;5106154;28;20097;-74
2023/10/10 10:26:32;;;;;;;2.05;1.95;;;19.00;99.90;;;;;;5105222;28;20512;-74
2023/10/10 10:29:00;;;;;;;2.95;1.52;;;19.00;99.90;;;;;;5107315;28;20043;-74
2023/10/10 10:31:35;;;;;;;6.45;2.45;;;19.10;99.90;;;;;;5103764;27;21784;-74
2023/10/10 10:34:45;;;;;;;4.28;2.22;;;19.10;99.90;;;;;;5104502;27;20054;-74
2023/10/10 10:37:13;;;;;;;1.90;1.77;;;19.30;99.90;;;;;;5100897;27;20142;-74
2023/10/10 10:39:46;;;;;;;;;;;19.40;99.90;;;;;;5089669;28;20051;-74
2023/10/10 10:42:12;;;;;;;2.92;1.83;;;19.50;99.90;;;;;;5105170;28;19928;-74
2023/10/10 10:44:44;;;;;;;3.78;2.13;;;19.70;99.90;;;;;;5101867;28;20063;-74
2023/10/10 10:47:35;;;;;;;2.03;1.67;;;19.80;99.90;;;;;;5104926;28;20158;-74
2023/10/10 10:50:28;;;;;;;4.85;3.03;;;19.80;99.90;;;;;;5106419;28;20090;-75
2023/10/10 10:53:08;;;;;;;2.58;2.00;;;19.80;99.90;;;;;;5104988;28;20874;-74
2023/10/10 10:55:41;;;;;;;2.30;1.98;;;19.90;99.90;;;;;;5105024;27;20035;-74
2023/10/10 10:58:20;;;;;;;3.20;2.88;;;20.00;99.90;;;;;;5106441;27;20054;-74
2023/10/10 11:03:35;;;;;;;2.80;2.55;;;20.10;99.90;;;;;;5102219;28;21886;-74
2023/10/10 11:06:09;;;;;;;1.77;1.65;;;20.10;99.90;;;;;;5104472;28;20059;-74
2023/10/10 11:14:18;;;;;;;1.65;1.13;;;20.40;99.90;;;;;;5102981;28;20051;-74
2023/10/10 11:16:45;;;;;;;6.03;3.45;;;20.40;99.90;;;;;;5087943;28;20043;-73
2023/10/10 11:21:53;;;;;;;3.95;2.55;;;20.40;99.90;;;;;;5105510;27;20100;-73
2023/10/10 11:24:25;;;;;;;1.40;1.30;;;20.30;99.90;;;;;;5105532;27;20180;-73
2023/10/10 11:32:29;;;;;;;2.40;2.20;;;20.30;99.90;;;;;;5104708;27;20047;-75
2023/10/10 11:35:17;;;;;;;2.75;2.55;;;20.30;99.90;;;;;;5103018;28;20094;-74
2023/10/10 11:37:47;;;;;;;3.38;3.10;;;20.40;99.90;;;;;;5105319;28;20048;-73
2023/10/10 11:40:20;;;;;;;2.42;2.20;;;20.50;99.90;;;;;;5100924;28;20052;-74
2023/10/10 11:42:47;;;;;;;21.88;4.43;;;20.70;99.90;;;;;;5117716;27;20047;-74
2023/10/10 11:45:17;;;;;;;3.20;2.40;;;20.80;99.90;;;;;;5103581;28;20044;-73
2023/10/10 11:47:44;;;;;;;3.13;2.88;;;20.90;99.90;;;;;;5103950;28;20496;-72
2023/10/10 11:50:22;;;;;;;3.08;2.78;;;21.10;99.90;;;;;;5103312;28;20117;-73
2023/10/10 11:52:58;;;;;;;3.10;2.20;;;21.30;99.90;;;;;;5098132;28;20047;-73
2023/10/10 11:55:34;;;;;;;2.95;2.75;;;21.30;99.90;;;;;;5101451;28;20069;-73
2023/10/10 11:58:16;;;;;;;3.42;2.10;;;21.30;99.90;;;;;;5108504;28;20043;-74
2023/10/10 12:00:43;;;;;;;1.40;1.30;;;21.40;99.90;;;;;;5109830;27;20086;-73
2023/10/10 12:03:10;;;;;;;2.42;2.20;;;21.30;99.90;;;;;;5111064;27;20420;-74
2023/10/10 12:05:49;;;;;;;4.75;3.17;;;21.10;99.90;;;;;;5109248;28;20044;-74
2023/10/10 12:08:22;;;;;;;2.05;1.90;;;21.00;99.90;;;;;;5111555;27;20058;-73
2023/10/10 12:10:52;;;;;;;3.13;1.27;;;21.00;99.90;;;;;;5084632;28;20233;-74
2023/10/10 12:16:12;;;;;;;3.60;2.85;;;21.10;99.90;;;;;;5111293;28;20504;-72
2023/10/10 12:18:52;;;;;;;3.22;1.48;;;21.30;99.90;;;;;;5107050;28;20075;-74
2023/10/10 12:21:22;;;;;;;3.30;2.88;;;21.40;99.90;;;;;;5105726;28;20185;-74
2023/10/10 12:23:57;;;;;;;1.77;1.67;;;21.30;99.90;;;;;;5106846;28;20600;-74
2023/10/10 12:26:24;;;;;;;5.35;2.13;;;21.20;99.90;;;;;;5103497;28;20081;-73
2023/10/10 12:28:53;;;;;;;3.17;2.08;;;21.10;99.90;;;;;;5103915;27;21058;-73
2023/10/10 12:31:23;;;;;;;3.63;3.33;;;21.00;99.90;;;;;;5107999;27;20870;-74
2023/10/10 12:33:49;;;;;;;2.42;1.58;;;20.90;99.90;;;;;;5103099;27;20040;-73
2023/10/10 12:36:16;;;;;;;5.20;3.28;;;20.90;99.90;;;;;;5090631;27;20047;-74
2023/10/10 12:38:42;;;;;;;5.32;1.48;;;20.90;99.90;;;;;;5107536;28;20195;-74
2023/10/10 12:41:14;;;;;;;2.67;1.75;;;21.00;99.90;;;;;;5107047;27;20130;-73
2023/10/10 12:43:40;;;;;;;1.42;1.33;;;21.20;99.90;;;;;;5103843;27;20055;-73
2023/10/10 12:46:09;;;;;;;0.63;0.63;;;21.30;99.90;;;;;;5109440;27;20047;-72
2023/10/10 12:48:46;;;;;;;2.92;2.70;;;21.40;99.90;;;;;;5105877;28;20043;-74
2023/10/10 12:51:12;;;;;;;1.35;1.00;;;21.60;99.90;;;;;;5107908;27;20123;-74
2023/10/10 12:53:39;;;;;;;2.55;1.73;;;21.60;99.90;;;;;;5118075;27;20951;-73
2023/10/10 12:56:15;;;;;;;3.60;2.53;;;21.70;99.90;;;;;;5108005;28;20050;-74
2023/10/10 12:58:43;;;;;;;;;;;21.70;99.90;;;;;;5104644;28;20186;-75
2023/10/10 13:01:22;;;;;;;1.67;1.23;;;21.70;99.90;;;;;;5100711;27;19923;-74
2023/10/10 13:03:48;;;;;;;2.42;2.22;;;21.70;99.90;;;;;;5107255;27;20096;-74
2023/10/10 13:06:14;;;;;;;1.95;1.02;;;21.60;99.90;;;;;;5105788;28;20051;-73
2023/10/10 13:11:18;;;;;;;1.40;1.30;;;21.60;99.90;;;;;;5106462;28;20066;-74
2023/10/10 13:13:48;;;;;;;2.28;1.48;;;21.50;99.90;;;;;;5100460;28;20069;-73
2023/10/10 13:18:59;;;;;;;1.20;1.10;;;21.60;99.90;;;;;;5103139;27;20085;-73
2023/10/10 13:21:25;;;;;;;3.25;2.15;;;21.60;99.90;;;;;;5100961;27;20147;-74
2023/10/10 13:23:52;;;;;;;1.98;1.75;;;21.90;99.90;;;;;;5106724;27;20052;-73
2023/10/10 13:26:22;;;;;;;0.63;0.63;;;22.20;99.90;;;;;;5105275;28;20530;-74
2023/10/10 13:28:48;;;;;;;1.60;1.45;;;22.30;99.90;;;;;;5104211;28;20047;-73
2023/10/10 13:31:16;;;;;;;4.85;1.80;;;22.30;99.90;;;;;;5088080;28;20043;-73
2023/10/10 13:33:42;;;;;;;1.40;1.30;;;22.20;99.90;;;;;;5106701;28;20568;-73
2023/10/10 13:36:12;;;;;;;0.77;0.77;;;22.00;99.90;;;;;;5108179;28;20042;-73
2023/10/10 13:38:49;;;;;;;2.10;1.90;;;21.90;99.90;;;;;;5107560;27;20061;-74
2023/10/10 13:41:18;;;;;;;1.90;1.08;;;21.70;99.90;;;;;;5105278;28;20059;-73
2023/10/10 13:43:48;;;;;;;2.40;2.20;;;21.50;99.90;;;;;;5088478;28;20039;-73
2023/10/10 13:46:15;;;;;;;0.47;0.47;;;21.40;99.90;;;;;;5106217;28;20035;-73
2023/10/10 13:48:41;;;;;;;1.65;1.17;;;21.20;99.90;;;;;;5105073;28;20115;-74
2023/10/10 13:51:07;;;;;;;0.70;0.70;;;21.10;99.90;;;;;;5104576;28;20130;-75
2023/10/10 13:53:34;;;;;;;0.38;0.38;;;21.10;99.90;;;;;;5108887;28;20074;-73
2023/10/10 13:56:04;;;;;;;2.20;1.70;;;21.20;99.90;;;;;;5106948;27;20087;-74
2023/10/10 13:58:30;;;;;;;1.25;1.15;;;21.10;99.90;;;;;;5106420;28;20542;-75
2023/10/10 14:01:04;;;;;;;1.38;1.27;;;21.10;99.90;;;;;;5105095;28;20461;-75
2023/10/10 14:03:29;;;;;;;1.48;0.80;;;21.20;99.90;;;;;;5106896;28;20036;-74
2023/10/10 14:06:10;;;;;;;1.48;1.30;;;21.30;99.90;;;;;;5106083;27;20049;-74
2023/10/10 14:08:36;;;;;;;1.20;1.05;;;21.40;99.90;;;;;;5106354;27;20378;-74
2023/10/10 14:11:03;;;;;;;1.13;1.02;;;21.40;99.90;;;;;;5107105;27;20158;-74
2023/10/10 14:13:30;;;;;;;1.08;1.08;;;21.20;99.90;;;;;;5105796;27;20122;-73
2023/10/10 14:15:56;;;;;;;2.72;0.90;;;21.10;99.90;;;;;;5105273;27;20039;-74
2023/10/10 14:18:32;;;;;;;1.52;1.42;;;21.00;99.90;;;;;;5107178;28;20048;-73
2023/10/10 14:21:07;;;;;;;1.55;1.45;;;20.90;99.90;;;;;;5104868;28;20150;-73
2023/10/10 14:23:39;;;;;;;2.78;2.03;;;20.90;99.90;;;;;;5107726;27;20039;-74
2023/10/10 14:26:27;;;;;;;1.45;1.35;;;20.80;99.90;;;;;;5103944;28;20093;-74
2023/10/10 14:28:53;;;;;;;1.25;1.15;;;20.70;99.90;;;;;;5104865;28;20067;-73
2023/10/10 14:31:24;;;;;;;2.97;2.20;;;20.70;99.90;;;;;;5100880;28;20359;-75
2023/10/10 14:33:51;;;;;;;1.58;1.48;;;20.70;99.90;;;;;;5104890;28;20071;-73
2023/10/10 14:36:17;;;;;;;0.50;0.50;;;20.70;99.90;;;;;;5106922;28;20430;-74
2023/10/10 14:38:49;;;;;;;1.52;1.42;;;20.70;99.90;;;;;;5105741;28;20063;-73
2023/10/10 14:41:20;;;;;;;0.82;0.82;;;20.70;99.90;;;;;;5107091;28;20412;-73
2023/10/10 14:44:00;;;;;;;0.40;0.40;;;20.60;99.90;;;;;;5106187;28;20047;-72
2023/10/10 14:46:33;;;;;;;0.68;0.68;;;20.60;99.90;;;;;;5103475;28;20093;-76
2023/10/10 14:49:01;;;;;;;1.60;1.50;;;20.50;99.90;;;;;;5106471;28;20076;-77
2023/10/10 14:51:34;;;;;;;0.63;0.63;;;20.50;99.90;;;;;;5107686;27;20043;-74
2023/10/10 14:54:08;;;;;;;1.48;1.25;;;20.50;99.90;;;;;;5103909;28;20515;-73
2023/10/10 14:56:38;;;;;;;5.30;2.10;;;20.60;99.90;;;;;;5106623;28;20456;-74
2023/10/10 14:59:06;;;;;;;1.50;1.30;;;20.70;99.90;;;;;;5086625;28;20096;-74
2023/10/10 15:01:34;;;;;;;4.20;2.22;;;20.90;99.90;;;;;;5106935;28;20044;-74
2023/10/10 15:04:04;;;;;;;0.90;0.90;;;21.00;99.90;;;;;;5106198;28;20387;-74
2023/10/10 15:06:31;;;;;;;1.25;1.15;;;21.00;99.90;;;;;;5105712;27;20108;-74
2023/10/10 15:08:58;;;;;;;0.93;0.93;;;21.00;99.90;;;;;;5105508;28;20054;-74
2023/10/10 15:11:27;;;;;;;0.70;0.70;;;21.10;99.90;;;;;;5107717;28;20431;-74
2023/10/10 15:13:57;;;;;;;2.85;2.65;;;21.10;99.90;;;;;;5087976;28;20047;-75
2023/10/10 15:16:25;;;;;;;1.45;1.35;;;21.20;99.90;;;;;;5111514;27;20047;-74
2023/10/10 15:18:54;;;;;;;2.28;1.80;;;21.10;99.90;;;;;;5106503;28;20046;-74
2023/10/10 15:21:21;;;;;;;1.17;1.17;;;21.10;99.90;;;;;;5088008;28;20045;-74
2023/10/10 15:23:47;;;;;;;1.80;1.65;;;21.10;99.90;;;;;;5103226;28;20405;-74
2023/10/10 15:26:20;;;;;;;2.13;1.52;;;21.10;99.90;;;;;;5102585;27;20039;-74
2023/10/10 15:28:46;;;;;;;1.25;1.15;;;21.00;99.90;;;;;;5098747;28;20073;-74
2023/10/10 15:31:13;;;;;;;1.85;1.40;;;20.80;99.90;;;;;;5098529;28;20052;-75
2023/10/10 15:33:43;;;;;;;3.67;2.20;;;20.70;99.90;;;;;;5103900;28;20052;-74
2023/10/10 15:36:11;;;;;;;1.08;1.05;;;20.60;99.90;;;;;;5106489;27;20193;-73
2023/10/10 15:38:38;;;;;;;2.20;1.85;;;20.40;99.90;;;;;;5102818;28;20051;-73
2023/10/10 15:41:19;;;;;;;1.45;1.35;;;20.30;99.90;;;;;;5105256;28;20058;-73
2023/10/10 15:43:49;;;;;;;1.60;1.50;;;20.30;99.90;;;;;;5100342;28;20051;-72
2023/10/10 15:46:16;;;;;;;1.33;1.20;;;20.20;99.90;;;;;;5102236;28;20039;-73
2023/10/10 15:48:49;;;;;;;2.20;2.00;;;20.10;99.90;;;;;;5100382;28;20071;-73
2023/10/10 15:51:20;;;;;;;1.50;1.40;;;19.90;99.90;;;;;;5100836;28;20201;-74
2023/10/10 15:53:47;;;;;;;1.20;1.10;;;19.80;99.90;;;;;;5081316;28;20052;-74
2023/10/10 15:58:49;;;;;;;2.90;0.88;;;19.70;99.90;;;;;;5101854;28;20937;-72
2023/10/10 16:01:27;;;;;;;4.93;2.13;;;19.60;99.90;;;;;;5101252;28;20056;-73
2023/10/10 16:04:00;;;;;;;2.83;2.17;;;19.50;99.90;;;;;;5098895;28;20467;-74